createdAt,value
2017-11-15T00:01:19.980Z,3.70
2017-11-15T00:03:47.545Z,3.70
2017-11-15T00:06:15.113Z,3.70
2017-11-15T00:08:42.704Z,3.70
2017-11-15T00:11:10.268Z,3.70
2017-11-15T00:13:37.796Z,3.70
2017-11-15T00:16:05.365Z,3.70
2017-11-15T00:18:32.931Z,3.70
2017-11-15T00:21:00.497Z,3.70
2017-11-15T00:23:28.060Z,3.80
2017-11-15T00:25:55.591Z,3.80
2017-11-15T00:28:23.152Z,3.80
2017-11-15T00:30:50.767Z,3.80
2017-11-15T00:33:19.082Z,3.80
2017-11-15T00:35:46.658Z,3.80
2017-11-15T00:38:14.238Z,3.80
2017-11-15T00:40:41.884Z,3.90
2017-11-15T00:43:09.510Z,3.90
2017-11-15T00:45:37.068Z,3.90
2017-11-15T00:48:04.720Z,3.90
2017-11-15T00:50:33.040Z,3.90
2017-11-15T00:53:00.600Z,3.90
2017-11-15T00:55:28.164Z,3.90
2017-11-15T00:57:55.736Z,3.90
2017-11-15T01:00:23.314Z,3.90
2017-11-15T01:02:50.884Z,3.90
2017-11-15T01:05:19.232Z,3.90
2017-11-15T01:07:46.801Z,3.90
2017-11-15T01:10:14.365Z,3.90
2017-11-15T01:12:41.941Z,3.90
2017-11-15T01:15:10.246Z,3.90
2017-11-15T01:17:37.820Z,3.80
2017-11-15T01:20:05.396Z,3.90
2017-11-15T01:22:32.960Z,3.80
2017-11-15T01:25:00.561Z,3.80
2017-11-15T01:27:28.896Z,3.80
2017-11-15T01:29:57.195Z,3.80
2017-11-15T01:32:24.836Z,3.80
2017-11-15T01:34:52.374Z,3.80
2017-11-15T01:37:19.948Z,3.80
2017-11-15T01:39:47.503Z,3.80
2017-11-15T01:42:15.074Z,3.80
2017-11-15T01:44:42.660Z,3.80
2017-11-15T01:47:10.340Z,3.80
2017-11-15T01:49:37.918Z,3.80
2017-11-15T01:52:06.211Z,3.80
2017-11-15T01:54:33.804Z,3.70
2017-11-15T01:57:01.376Z,3.80
2017-11-15T01:59:28.970Z,3.80
2017-11-15T02:01:57.311Z,3.80
2017-11-15T02:04:24.885Z,3.80
2017-11-15T02:06:52.464Z,3.80
2017-11-15T02:09:20.812Z,3.80
2017-11-15T02:11:48.357Z,3.80
2017-11-15T02:14:15.894Z,3.80
2017-11-15T02:16:43.643Z,3.80
2017-11-15T02:19:11.179Z,3.80
2017-11-15T02:21:39.496Z,3.80
2017-11-15T02:24:07.071Z,3.80
2017-11-15T02:26:34.704Z,3.80
2017-11-15T02:29:02.289Z,3.80
2017-11-15T02:31:29.879Z,3.80
2017-11-15T02:33:57.510Z,3.80
2017-11-15T02:36:25.071Z,3.80
2017-11-15T02:38:52.664Z,3.70
2017-11-15T02:41:20.192Z,3.70
2017-11-15T02:43:47.722Z,3.70
2017-11-15T02:46:15.310Z,3.70
2017-11-15T02:48:42.892Z,3.70
2017-11-15T02:51:10.462Z,3.70
2017-11-15T02:53:38.041Z,3.70
2017-11-15T02:56:06.381Z,3.70
2017-11-15T02:58:33.910Z,3.70
2017-11-15T03:01:01.579Z,3.80
2017-11-15T03:03:29.147Z,3.70
2017-11-15T03:05:56.716Z,3.70
2017-11-15T03:08:24.240Z,3.80
2017-11-15T03:10:51.771Z,3.80
2017-11-15T03:13:20.584Z,3.70
2017-11-15T03:15:48.928Z,3.80
2017-11-15T03:18:16.456Z,3.70
2017-11-15T03:20:44.021Z,3.80
2017-11-15T03:23:11.554Z,3.80
2017-11-15T03:25:39.184Z,3.80
2017-11-15T03:28:06.715Z,3.80
2017-11-15T03:30:34.292Z,3.80
2017-11-15T03:33:01.867Z,3.80
2017-11-15T03:35:30.205Z,3.80
2017-11-15T03:37:57.765Z,3.80
2017-11-15T03:40:25.336Z,3.80
2017-11-15T03:42:52.949Z,3.80
2017-11-15T03:45:21.224Z,3.80
2017-11-15T03:47:48.832Z,3.80
2017-11-15T03:50:16.360Z,3.80
2017-11-15T03:52:43.940Z,3.80
2017-11-15T03:55:11.500Z,3.80
2017-11-15T03:57:39.059Z,3.90
2017-11-15T04:00:07.653Z,3.90
2017-11-15T04:02:35.211Z,3.90
2017-11-15T04:05:02.796Z,3.90
2017-11-15T04:07:30.315Z,3.90
2017-11-15T04:09:57.849Z,3.90
2017-11-15T04:12:25.420Z,3.90
2017-11-15T04:14:52.991Z,3.90
2017-11-15T04:17:20.568Z,3.90
2017-11-15T04:19:48.140Z,3.90
2017-11-15T04:22:15.743Z,3.90
2017-11-15T04:24:43.272Z,4.00
2017-11-15T04:27:11.536Z,4.00
2017-11-15T04:29:39.116Z,4.00
2017-11-15T04:32:06.693Z,4.00
2017-11-15T04:34:35.033Z,3.90
2017-11-15T04:37:02.613Z,3.90
2017-11-15T04:39:30.267Z,3.90
2017-11-15T04:41:57.852Z,4.00
2017-11-15T04:44:26.140Z,4.00
2017-11-15T04:46:53.671Z,4.00
2017-11-15T04:49:22.009Z,4.00
2017-11-15T04:51:49.596Z,4.00
2017-11-15T04:54:17.128Z,4.00
2017-11-15T04:56:44.819Z,4.00
2017-11-15T04:59:12.404Z,4.00
2017-11-15T05:01:40.737Z,4.00
2017-11-15T05:04:08.306Z,4.00
2017-11-15T05:06:35.872Z,4.10
2017-11-15T05:09:04.301Z,4.10
2017-11-15T05:11:31.924Z,4.10
2017-11-15T05:13:59.461Z,4.10
2017-11-15T05:16:26.992Z,4.10
2017-11-15T05:18:54.542Z,4.10
2017-11-15T05:21:22.222Z,4.10
2017-11-15T05:23:49.794Z,4.10
2017-11-15T05:26:17.365Z,4.10
2017-11-15T05:28:44.959Z,4.10
2017-11-15T05:31:13.511Z,4.10
2017-11-15T05:33:41.073Z,4.10
2017-11-15T05:36:08.646Z,4.10
2017-11-15T05:38:36.224Z,4.10
2017-11-15T05:41:04.565Z,4.10
2017-11-15T05:43:32.150Z,4.10
2017-11-15T05:45:59.756Z,4.10
2017-11-15T05:48:27.380Z,4.10
2017-11-15T05:50:54.920Z,4.10
2017-11-15T05:53:22.504Z,4.10
2017-11-15T05:55:50.839Z,4.10
2017-11-15T05:58:18.411Z,4.10
2017-11-15T06:00:45.973Z,4.20
2017-11-15T06:03:13.540Z,4.20
2017-11-15T06:05:41.124Z,4.20
2017-11-15T06:08:09.456Z,4.20
2017-11-15T06:10:37.023Z,4.20
2017-11-15T06:13:04.569Z,4.20
2017-11-15T06:15:32.226Z,4.30
2017-11-15T06:17:59.697Z,4.30
2017-11-15T06:20:27.258Z,4.30
2017-11-15T06:22:54.918Z,4.20
2017-11-15T06:25:22.624Z,4.30
2017-11-15T06:27:50.182Z,4.30
2017-11-15T06:30:17.849Z,4.30
2017-11-15T06:32:45.355Z,4.30
2017-11-15T06:35:12.920Z,4.30
2017-11-15T06:37:40.491Z,4.30
2017-11-15T06:40:08.063Z,4.30
2017-11-15T06:42:35.640Z,4.30
2017-11-15T06:45:03.999Z,4.30
2017-11-15T06:47:31.569Z,4.30
2017-11-15T06:49:59.095Z,4.30
2017-11-15T06:52:26.662Z,4.30
2017-11-15T06:54:54.221Z,4.30
2017-11-15T06:57:21.752Z,4.30
2017-11-15T06:59:49.334Z,4.30
2017-11-15T07:02:16.943Z,4.30
2017-11-15T07:04:45.275Z,4.30
2017-11-15T07:07:13.036Z,4.20
2017-11-15T07:09:40.599Z,4.30
2017-11-15T07:12:08.166Z,4.30
2017-11-15T07:14:35.766Z,4.30
2017-11-15T07:17:03.354Z,4.20
2017-11-15T07:19:30.885Z,4.20
2017-11-15T07:21:59.226Z,4.20
2017-11-15T07:24:26.755Z,4.20
2017-11-15T07:26:54.328Z,4.20
2017-11-15T07:29:21.900Z,4.20
2017-11-15T07:31:49.464Z,4.10
2017-11-15T07:34:17.031Z,4.10
2017-11-15T07:36:44.619Z,4.10
2017-11-15T07:39:12.187Z,4.20
2017-11-15T07:41:40.524Z,4.20
2017-11-15T07:44:08.052Z,4.20
2017-11-15T07:46:35.628Z,4.20
2017-11-15T07:49:03.216Z,4.20
2017-11-15T07:51:30.781Z,4.30
2017-11-15T07:53:58.431Z,4.30
2017-11-15T07:56:25.956Z,4.30
2017-11-15T07:58:53.529Z,4.30
2017-11-15T08:01:21.087Z,4.30
2017-11-15T08:03:48.651Z,4.40
2017-11-15T08:06:16.186Z,4.40
2017-11-15T08:08:43.749Z,4.50
2017-11-15T08:11:11.276Z,4.50
2017-11-15T08:13:38.873Z,4.60
2017-11-15T08:16:06.458Z,4.60
2017-11-15T08:18:33.993Z,4.70
2017-11-15T08:21:01.577Z,4.70
2017-11-15T08:23:29.144Z,4.80
2017-11-15T08:25:56.709Z,4.80
2017-11-15T08:28:24.196Z,4.90
2017-11-15T08:30:52.545Z,4.90
2017-11-15T08:33:20.165Z,4.90
2017-11-15T08:35:47.729Z,5.00
2017-11-15T08:38:15.288Z,5.00
2017-11-15T08:40:42.821Z,4.90
2017-11-15T08:43:11.188Z,4.90
2017-11-15T08:45:38.729Z,5.00
2017-11-15T08:48:06.278Z,4.90
2017-11-15T08:50:33.963Z,4.80
2017-11-15T08:53:01.580Z,4.70
2017-11-15T08:55:29.124Z,4.60
2017-11-15T08:57:56.683Z,4.60
2017-11-15T09:00:24.262Z,4.70
2017-11-15T09:02:51.836Z,4.70
2017-11-15T09:05:19.416Z,4.90
2017-11-15T09:07:46.946Z,5.00
2017-11-15T09:10:15.313Z,5.30
2017-11-15T09:12:42.919Z,5.30
2017-11-15T09:15:10.485Z,5.50
2017-11-15T09:17:38.063Z,5.60
2017-11-15T09:20:06.393Z,5.90
2017-11-15T09:22:33.962Z,5.80
2017-11-15T09:25:01.558Z,5.90
2017-11-15T09:27:30.311Z,6.00
2017-11-15T09:29:57.933Z,6.00
2017-11-15T09:32:25.501Z,6.00
2017-11-15T09:34:53.033Z,6.00
2017-11-15T09:37:20.610Z,6.10
2017-11-15T09:39:48.173Z,6.10
2017-11-15T09:42:15.744Z,6.20
2017-11-15T09:44:43.320Z,6.30
2017-11-15T09:47:10.857Z,6.40
2017-11-15T09:49:38.416Z,6.50
2017-11-15T09:52:05.994Z,6.70
2017-11-15T09:54:33.560Z,6.80
2017-11-15T09:57:01.133Z,6.90
2017-11-15T09:59:29.084Z,7.10
2017-11-15T10:01:56.645Z,7.10
2017-11-15T10:04:24.203Z,7.20
2017-11-15T10:06:51.840Z,7.20
2017-11-15T10:09:19.364Z,7.30
2017-11-15T10:11:47.710Z,7.30
2017-11-15T10:14:15.241Z,7.30
2017-11-15T10:16:42.785Z,7.40
2017-11-15T10:19:10.361Z,7.40
2017-11-15T10:21:37.886Z,7.50
2017-11-15T10:24:06.421Z,7.40
2017-11-15T10:26:33.988Z,7.30
2017-11-15T10:29:01.597Z,7.20
2017-11-15T10:31:29.894Z,7.10
2017-11-15T10:33:57.481Z,7.00
2017-11-15T10:36:25.049Z,6.90
2017-11-15T10:38:52.716Z,6.90
2017-11-15T10:41:20.289Z,6.80
2017-11-15T10:43:47.866Z,6.70
2017-11-15T10:46:16.213Z,6.60
2017-11-15T10:48:43.787Z,6.60
2017-11-15T10:51:11.543Z,6.60
2017-11-15T10:53:39.089Z,6.60
2017-11-15T10:56:06.641Z,6.70
2017-11-15T10:58:34.208Z,6.60
2017-11-15T11:01:01.755Z,6.50
2017-11-15T11:03:29.353Z,6.50
2017-11-15T11:05:56.933Z,6.50
2017-11-15T11:08:26.248Z,6.70
2017-11-15T11:10:54.577Z,6.70
2017-11-15T11:13:22.146Z,6.70
2017-11-15T11:15:49.707Z,6.80
2017-11-15T11:18:17.288Z,6.80
2017-11-15T11:20:44.935Z,6.80
2017-11-15T11:23:12.504Z,6.80
2017-11-15T11:25:40.133Z,6.80
2017-11-15T11:28:07.717Z,6.80
2017-11-15T11:30:35.295Z,6.80
2017-11-15T11:33:02.892Z,6.70
2017-11-15T11:35:30.707Z,6.70
2017-11-15T11:37:58.340Z,6.70
2017-11-15T11:40:25.906Z,6.70
2017-11-15T11:42:53.509Z,6.70
2017-11-15T11:45:21.068Z,6.60
2017-11-15T11:47:49.444Z,6.70
2017-11-15T11:50:18.852Z,6.60
2017-11-15T11:52:47.240Z,6.60
2017-11-15T11:55:14.851Z,6.60
2017-11-15T11:57:42.504Z,6.60
2017-11-15T12:00:10.073Z,6.60
2017-11-15T12:02:37.683Z,6.60
2017-11-15T12:05:05.293Z,6.60
2017-11-15T12:07:33.047Z,6.60
2017-11-15T12:10:00.651Z,6.40
2017-11-15T12:12:29.027Z,6.30
2017-11-15T12:14:57.411Z,6.30
2017-11-15T12:17:25.042Z,6.30
2017-11-15T12:19:52.642Z,6.20
2017-11-15T12:22:21.007Z,6.20
2017-11-15T12:24:48.617Z,6.10
2017-11-15T12:27:16.255Z,6.20
2017-11-15T12:29:43.859Z,6.20
2017-11-15T12:32:11.500Z,6.10
2017-11-15T12:34:39.215Z,6.10
2017-11-15T12:37:10.899Z,6.10
2017-11-15T12:39:39.417Z,6.10
2017-11-15T12:42:07.586Z,6.10
2017-11-15T12:44:35.798Z,6.10
2017-11-15T12:47:05.030Z,6.20
2017-11-15T12:49:33.122Z,6.10
2017-11-15T12:52:02.126Z,6.20
2017-11-15T12:54:30.562Z,6.20
2017-11-15T12:56:58.648Z,6.20
2017-11-15T12:59:26.752Z,6.20
2017-11-15T13:01:54.926Z,6.30
2017-11-15T13:04:23.098Z,6.30
2017-11-15T13:06:51.911Z,6.40
2017-11-15T13:09:20.066Z,6.40
2017-11-15T13:11:48.222Z,6.40
2017-11-15T13:14:17.944Z,6.40
2017-11-15T13:16:46.817Z,6.40
2017-11-15T13:19:15.668Z,6.40
2017-11-15T13:21:44.619Z,6.40
2017-11-15T13:24:12.756Z,6.40
2017-11-15T13:26:40.766Z,6.40
2017-11-15T13:29:09.656Z,6.30
2017-11-15T13:31:37.711Z,6.30
2017-11-15T13:34:05.911Z,6.30
2017-11-15T13:36:34.167Z,6.30
2017-11-15T13:39:02.776Z,6.30
2017-11-15T13:41:31.957Z,6.30
2017-11-15T13:44:00.172Z,6.30
2017-11-15T13:46:28.353Z,6.30
2017-11-15T13:48:56.515Z,6.30
2017-11-15T13:51:24.900Z,6.20
2017-11-15T13:53:53.916Z,6.20
2017-11-15T13:56:23.032Z,6.20
2017-11-15T13:58:52.762Z,6.20
2017-11-15T14:01:20.871Z,6.20
2017-11-15T14:03:49.101Z,6.20
2017-11-15T14:06:17.385Z,6.10
2017-11-15T14:08:45.726Z,6.10
2017-11-15T14:11:14.865Z,6.10
2017-11-15T14:13:42.973Z,6.10
2017-11-15T14:16:11.154Z,6.10
2017-11-15T14:18:39.392Z,6.10
2017-11-15T14:21:07.563Z,6.10
2017-11-15T14:23:35.814Z,6.10
2017-11-15T14:26:04.088Z,6.10
2017-11-15T14:28:33.039Z,6.10
2017-11-15T14:31:02.411Z,6.10
2017-11-15T14:33:30.710Z,6.10
2017-11-15T14:35:58.860Z,6.10
2017-11-15T14:38:27.067Z,6.10
2017-11-15T14:40:55.205Z,6.10
2017-11-15T14:43:23.383Z,6.10
2017-11-15T14:45:51.519Z,6.10
2017-11-15T14:48:19.729Z,6.10
2017-11-15T14:50:47.890Z,6.10
2017-11-15T14:53:16.047Z,6.00
2017-11-15T14:55:44.296Z,6.10
2017-11-15T14:58:13.086Z,6.00
2017-11-15T15:00:41.250Z,6.00
2017-11-15T15:03:12.767Z,6.00
2017-11-15T15:05:40.944Z,6.00
2017-11-15T15:08:10.067Z,6.00
2017-11-15T15:10:38.222Z,6.00
2017-11-15T15:13:06.400Z,5.90
2017-11-15T15:15:37.688Z,5.90
2017-11-15T15:18:05.967Z,5.90
2017-11-15T15:20:34.168Z,5.90
2017-11-15T15:23:02.701Z,5.90
2017-11-15T15:25:30.562Z,5.90
2017-11-15T15:27:59.029Z,5.90
2017-11-15T15:30:27.552Z,5.90
2017-11-15T15:32:55.225Z,5.90
2017-11-15T15:35:29.291Z,5.90
2017-11-15T15:37:56.934Z,5.90
2017-11-15T15:40:27.485Z,5.90
2017-11-15T15:42:55.420Z,5.90
2017-11-15T15:45:23.616Z,5.90
2017-11-15T15:47:52.267Z,5.90
2017-11-15T15:50:21.040Z,5.90
2017-11-15T15:52:48.842Z,5.80
2017-11-15T15:55:17.117Z,5.90
2017-11-15T15:57:46.215Z,5.90
2017-11-15T16:00:14.288Z,5.90
2017-11-15T16:02:43.122Z,5.90
2017-11-15T16:05:11.250Z,5.90
2017-11-15T16:07:39.738Z,5.90
2017-11-15T16:10:07.728Z,5.90
2017-11-15T16:12:35.806Z,5.90
2017-11-15T16:15:03.957Z,5.90
2017-11-15T16:17:33.241Z,5.90
2017-11-15T16:20:01.271Z,5.90
2017-11-15T16:22:30.082Z,5.90
2017-11-15T16:24:59.105Z,5.90
2017-11-15T16:27:27.525Z,5.80
2017-11-15T16:29:55.762Z,5.80
2017-11-15T16:32:23.932Z,5.90
2017-11-15T16:34:52.208Z,5.90
2017-11-15T16:37:20.428Z,5.80
2017-11-15T16:39:48.629Z,5.80
2017-11-15T16:42:16.984Z,5.80
2017-11-15T16:44:45.115Z,5.80
2017-11-15T16:47:13.359Z,5.80
2017-11-15T16:49:41.521Z,5.80
2017-11-15T16:52:09.763Z,5.80
2017-11-15T16:54:37.890Z,5.90
2017-11-15T16:57:06.087Z,5.80
2017-11-15T16:59:34.191Z,5.80
2017-11-15T17:02:02.107Z,5.80
2017-11-15T17:04:29.891Z,5.90
2017-11-15T17:06:57.786Z,5.90
2017-11-15T17:09:25.512Z,5.90
2017-11-15T17:11:53.116Z,5.90
2017-11-15T17:14:21.633Z,5.80
2017-11-15T17:16:49.255Z,5.90
2017-11-15T17:19:16.866Z,5.80
2017-11-15T17:21:44.482Z,5.80
2017-11-15T17:24:12.088Z,5.80
2017-11-15T17:26:39.716Z,5.80
2017-11-15T17:29:08.125Z,5.80
2017-11-15T17:31:35.769Z,5.80
2017-11-15T17:34:04.171Z,5.80
2017-11-15T17:36:31.792Z,5.80
2017-11-15T17:38:59.431Z,5.80
2017-11-15T17:41:27.077Z,5.80
2017-11-15T17:43:54.705Z,5.80
2017-11-15T17:46:22.362Z,5.70
2017-11-15T17:48:50.852Z,5.70
2017-11-15T17:51:18.471Z,5.70
2017-11-15T17:53:46.091Z,5.70
2017-11-15T17:56:13.689Z,5.70
2017-11-15T17:58:41.314Z,5.70
2017-11-15T18:01:09.511Z,5.60
2017-11-15T18:03:37.130Z,5.60
2017-11-15T18:06:04.724Z,5.60
2017-11-15T18:08:32.352Z,5.60
2017-11-15T18:10:59.956Z,5.60
2017-11-15T18:13:27.585Z,5.60
2017-11-15T18:15:55.209Z,5.60
2017-11-15T18:18:23.552Z,5.60
2017-11-15T18:20:51.173Z,5.50
2017-11-15T18:23:18.794Z,5.50
2017-11-15T18:25:46.434Z,5.60
2017-11-15T18:28:14.104Z,5.60
2017-11-15T18:30:41.723Z,5.60
2017-11-15T18:33:09.372Z,5.60
2017-11-15T18:35:37.088Z,5.60
2017-11-15T18:38:04.745Z,5.60
2017-11-15T18:40:32.516Z,5.60
2017-11-15T18:43:00.133Z,5.60
2017-11-15T18:45:27.714Z,5.60
2017-11-15T18:47:55.335Z,5.60
2017-11-15T18:50:23.720Z,5.60
2017-11-15T18:52:52.989Z,5.60
2017-11-15T18:55:20.562Z,5.60
2017-11-15T18:57:48.976Z,5.60
2017-11-15T19:00:17.192Z,5.60
2017-11-15T19:02:44.826Z,5.60
2017-11-15T19:05:12.455Z,5.60
2017-11-15T19:07:40.842Z,5.60
2017-11-15T19:10:08.481Z,5.60
2017-11-15T19:12:36.918Z,5.60
2017-11-15T19:15:04.537Z,5.60
2017-11-15T19:17:32.948Z,5.60
2017-11-15T19:20:00.580Z,5.60
2017-11-15T19:22:28.956Z,5.60
2017-11-15T19:24:57.340Z,5.60
2017-11-15T19:27:25.016Z,5.60
2017-11-15T19:29:52.668Z,5.60
2017-11-15T19:32:21.047Z,5.60
2017-11-15T19:34:49.453Z,5.60
2017-11-15T19:37:17.269Z,5.60
2017-11-15T19:39:45.127Z,5.60
2017-11-15T19:42:12.877Z,5.60
2017-11-15T19:44:40.531Z,5.60
2017-11-15T19:47:08.187Z,5.60
2017-11-15T19:49:36.765Z,5.60
2017-11-15T19:52:04.414Z,5.60
2017-11-15T19:54:32.098Z,5.60
2017-11-15T19:56:59.710Z,5.60
2017-11-15T19:59:28.123Z,5.60
2017-11-15T20:01:55.693Z,5.60
2017-11-15T20:04:23.293Z,5.60
2017-11-15T20:06:51.488Z,5.60
2017-11-15T20:09:19.898Z,5.60
2017-11-15T20:11:47.565Z,5.50
2017-11-15T20:14:15.177Z,5.50
2017-11-15T20:16:42.764Z,5.50
2017-11-15T20:19:11.048Z,5.50
2017-11-15T20:21:38.727Z,5.50
2017-11-15T20:24:06.345Z,5.50
2017-11-15T20:26:34.672Z,5.50
2017-11-15T20:29:02.286Z,5.40
2017-11-15T20:31:31.530Z,5.40
2017-11-15T20:33:59.096Z,5.40
2017-11-15T20:36:26.662Z,5.40
2017-11-15T20:38:54.251Z,5.40
2017-11-15T20:41:21.809Z,5.40
2017-11-15T20:43:49.425Z,5.40
2017-11-15T20:46:16.980Z,5.30
2017-11-15T20:48:45.555Z,5.30
2017-11-15T20:51:13.159Z,5.30
2017-11-15T20:53:40.757Z,5.30
2017-11-15T20:56:09.081Z,5.30
2017-11-15T20:58:36.676Z,5.30
2017-11-15T21:01:04.982Z,5.30
2017-11-15T21:03:32.594Z,5.30
2017-11-15T21:06:00.190Z,5.30
2017-11-15T21:08:28.523Z,5.20
2017-11-15T21:10:56.136Z,5.30
2017-11-15T21:13:24.613Z,5.30
2017-11-15T21:15:52.988Z,5.30
2017-11-15T21:18:21.355Z,5.30
2017-11-15T21:20:48.920Z,5.20
2017-11-15T21:23:17.256Z,5.30
2017-11-15T21:25:44.860Z,5.20
2017-11-15T21:28:12.458Z,5.30
2017-11-15T21:30:40.020Z,5.30
2017-11-15T21:33:07.617Z,5.30
2017-11-15T21:35:35.212Z,5.30
2017-11-15T21:38:03.631Z,5.30
2017-11-15T21:40:32.083Z,5.20
2017-11-15T21:43:00.499Z,5.30
2017-11-15T21:45:28.059Z,5.30
2017-11-15T21:47:55.692Z,5.30
2017-11-15T21:50:23.288Z,5.30
2017-11-15T21:52:50.877Z,5.30
2017-11-15T21:55:18.503Z,5.30
2017-11-15T21:57:46.098Z,5.30
2017-11-15T22:00:13.757Z,5.30
2017-11-15T22:02:41.525Z,5.30
2017-11-15T22:05:09.121Z,5.30
2017-11-15T22:07:36.738Z,5.30
2017-11-15T22:10:04.511Z,5.30
2017-11-15T22:12:32.096Z,5.30
2017-11-15T22:15:00.491Z,5.30
2017-11-15T22:17:28.845Z,5.30
2017-11-15T22:19:57.418Z,5.30
2017-11-15T22:22:25.115Z,5.30
2017-11-15T22:24:52.707Z,5.30
2017-11-15T22:27:20.316Z,5.20
2017-11-15T22:29:48.741Z,5.20
2017-11-15T22:32:16.369Z,5.20
2017-11-15T22:34:44.741Z,5.20
2017-11-15T22:37:13.107Z,5.30
2017-11-15T22:39:40.709Z,5.20
2017-11-15T22:42:08.326Z,5.30
2017-11-15T22:44:35.978Z,5.30
2017-11-15T22:47:03.549Z,5.30
2017-11-15T22:49:31.961Z,5.30
2017-11-15T22:51:59.552Z,5.30
2017-11-15T22:54:27.148Z,5.30
2017-11-15T22:56:54.796Z,5.30
2017-11-15T22:59:22.413Z,5.30
2017-11-15T23:01:49.989Z,5.30
2017-11-15T23:04:17.541Z,5.30
2017-11-15T23:06:45.150Z,5.30
2017-11-15T23:09:13.488Z,5.30
2017-11-15T23:11:41.061Z,5.30
2017-11-15T23:14:08.662Z,5.30
2017-11-15T23:16:37.756Z,5.30
2017-11-15T23:19:06.168Z,5.20
2017-11-15T23:21:33.727Z,5.20
2017-11-15T23:24:01.316Z,5.30
2017-11-15T23:26:28.906Z,5.30
2017-11-15T23:28:56.495Z,5.30
2017-11-15T23:31:24.813Z,5.30
2017-11-15T23:33:52.413Z,5.30
2017-11-15T23:36:20.737Z,5.20
2017-11-15T23:38:48.347Z,5.20
2017-11-15T23:41:15.940Z,5.30
2017-11-15T23:43:43.532Z,5.20
2017-11-15T23:46:11.088Z,5.20
2017-11-15T23:48:38.653Z,5.20
2017-11-15T23:51:06.212Z,5.30
2017-11-15T23:53:33.807Z,5.30
2017-11-15T23:56:01.365Z,5.30
2017-11-15T23:58:28.983Z,5.30
